Tetraktys — OS6207 — position and weather

sailwx.info

Track history (hours):
 
Tides and Currents Weather Stations Pressure Air Temp Water Temp Dewpoint Dewpoint Depression Visibility Wind Speed Wind Dir Waves Ship Positions

Tetraktys

Last reported at 2017-Jul-19 13:32 UTC. Time now 2017-Aug-21 23:27 UTC.
Position N 47°44' W 003°22'.
Warning: this ship's position is 33 days out of date.

Length 9 m.

Type: Sailing vessel. MMSI: 205620700.

Date/timePositionNaut miles runAvg speedWind from/ knotsBaromVisibWave heightAir tempDewpointWater temp
2017-Jul-19 13:32N 47°44' W 003°22'0 0.9
2017-Jul-19 13:30N 47°44' W 003°22'1 2.6
2017-Jul-19 13:00N 47°45' W 003°21'1 2.2
2017-Jul-19 12:27N 47°44' W 003°22'1 3.2
2017-Jul-19 12:00N 47°42' W 003°22'3 5.8
2017-Jul-19 11:30N 47°41' W 003°26'4 7.1
2017-Jul-19 10:59N 47°42' W 003°32'52 2.8
2017-Jul-18 16:21N 48°01' W 004°44'2 4.9
2017-Jul-18 16:00N 48°02' W 004°45'3 6.1
2017-Jul-18 15:30N 48°05' W 004°46'3 6.5
2017-Jul-18 15:00N 48°08' W 004°46'7 7.0
2017-Jul-18 14:00N 48°15' W 004°46'4 7.6
2017-Jul-18 13:30N 48°19' W 004°48'4 8.1
2017-Jul-18 12:58N 48°23' W 004°49'4 8.7
2017-Jul-18 12:30N 48°27' W 004°51'5 9.3
2017-Jul-18 12:00N 48°32' W 004°52'4 8.4
2017-Jul-18 11:30N 48°36' W 004°53'3 5.8
2017-Jul-18 11:00N 48°36' W 004°48'  
2017-Jul-15 19:19N 49°26' W 002°31'29 6.6
2017-Jul-15 14:54N 48°57' W 002°23'5 5.5
2017-Jul-15 13:59N 48°53' W 002°19'4 6.9
2017-Jul-15 13:28N 48°50' W 002°16'3 6.7
2017-Jul-15 13:00N 48°48' W 002°13'3 6.5
2017-Jul-15 12:30N 48°45' W 002°11'3 6.2
2017-Jul-15 11:58N 48°42' W 002°07'1 0.0
2017-Jul-13 22:52N 48°41' W 002°06'49 7.1
2017-Jul-13 16:03N 49°27' W 002°31'32 1.1
2017-Jul-12 11:01N 49°43' W 001°49'0 8.1
2017-Jul-12 11:00N 49°43' W 001°49'4 7.8
2017-Jul-12 10:31N 49°42' W 001°43'4 7.0
2017-Jul-12 10:00N 49°40' W 001°38'2 0.1
2017-Jul-11 14:43N 49°39' W 001°37'0 0.0
2017-Jul-11 14:28N 49°39' W 001°37'0 0.0
2017-Jul-11 13:58N 49°39' W 001°37'0 0.5
2017-Jul-11 13:30N 49°39' W 001°37'1 2.9
2017-Jul-11 13:00N 49°40' W 001°35'2 3.2
2017-Jul-11 12:30N 49°41' W 001°34'3 5.1
2017-Jul-11 12:00N 49°44' W 001°33'2 4.2
2017-Jul-11 11:30N 49°46' W 001°33'2 4.8
2017-Jul-11 11:00N 49°45' W 001°29'2 4.8
2017-Jul-11 10:30N 49°45' W 001°26'1 1.7
2017-Jul-11 10:00N 49°45' W 001°25'2 4.6
2017-Jul-11 09:30N 49°44' W 001°22'2 4.7
2017-Jul-11 09:00N 49°44' W 001°18'49 6.7
2017-Jul-11 01:43N 49°28' W 000°07'1 6.9
2017-Jul-11 01:30N 49°27' W 000°05'2 3.4
2017-Jul-11 00:58N 49°28' W 000°02'1 2.3
2017-Jul-11 00:30N 49°28' W 000°01'2 4.0
2017-Jul-11 00:00N 49°27' E 000°02'2 4.6
2017-Jul-10 23:30N 49°26' E 000°05'2 4.1
2017-Jul-10 23:00N 49°26' E 000°08'2 3.8
2017-Jul-10 22:30N 49°26' E 000°11'2 3.4
2017-Jul-10 22:00N 49°26' E 000°14'0 0.1
2017-Jul-10 13:40N 49°25' E 000°14'0 0.0
2017-Jul-10 13:28N 49°25' E 000°14'0 0.0
2017-Jul-10 12:58N 49°25' E 000°14'0 0.0
2017-Jul-10 12:28N 49°25' E 000°14'0 0.0
2017-Jul-10 08:37N 49°25' E 000°14'0 0.0
2017-Jul-10 08:31N 49°25' E 000°14'0 0.0
2017-Jul-10 08:01N 49°25' E 000°14'0 0.0
2017-Jul-09 21:09N 49°25' E 000°14'0 0.0
2017-Jul-09 21:00N 49°25' E 000°14'0 0.0
2017-Jul-09 20:30N 49°25' E 000°14'0 0.4
2017-Jul-09 20:00N 49°26' E 000°14'4 7.3
2017-Jul-09 19:30N 49°26' E 000°08'4 7.4
2017-Jul-09 19:00N 49°27' E 000°03'2 3.6
2017-Jul-09 18:30N 49°28' E 000°01'  
Track history (hours):
 
Tides and Currents Weather Stations Pressure Air Temp Water Temp Dewpoint Dewpoint Depression Visibility Wind Speed Wind Dir Waves Ship Positions

Tetraktys

Last reported at 2017-Jul-19 13:32 UTC. Time now 2017-Aug-21 23:27 UTC.
Position N 47°44' W 003°22'.
Warning: this ship's position is 33 days out of date.

Length 9 m.

Type: Sailing vessel. MMSI: 205620700.

Date/timePositionNaut miles runAvg speedWind from/ knotsBaromVisibWave heightAir tempDewpointWater temp
2017-Jul-19 13:32N 47°44' W 003°22'0 0.9
2017-Jul-19 13:30N 47°44' W 003°22'1 2.6
2017-Jul-19 13:00N 47°45' W 003°21'1 2.2
2017-Jul-19 12:27N 47°44' W 003°22'1 3.2
2017-Jul-19 12:00N 47°42' W 003°22'3 5.8
2017-Jul-19 11:30N 47°41' W 003°26'4 7.1
2017-Jul-19 10:59N 47°42' W 003°32'52 2.8
2017-Jul-18 16:21N 48°01' W 004°44'2 4.9
2017-Jul-18 16:00N 48°02' W 004°45'3 6.1
2017-Jul-18 15:30N 48°05' W 004°46'3 6.5
2017-Jul-18 15:00N 48°08' W 004°46'7 7.0
2017-Jul-18 14:00N 48°15' W 004°46'4 7.6
2017-Jul-18 13:30N 48°19' W 004°48'4 8.1
2017-Jul-18 12:58N 48°23' W 004°49'4 8.7
2017-Jul-18 12:30N 48°27' W 004°51'5 9.3
2017-Jul-18 12:00N 48°32' W 004°52'4 8.4
2017-Jul-18 11:30N 48°36' W 004°53'3 5.8
2017-Jul-18 11:00N 48°36' W 004°48'  
2017-Jul-15 19:19N 49°26' W 002°31'29 6.6
2017-Jul-15 14:54N 48°57' W 002°23'5 5.5
2017-Jul-15 13:59N 48°53' W 002°19'4 6.9
2017-Jul-15 13:28N 48°50' W 002°16'3 6.7
2017-Jul-15 13:00N 48°48' W 002°13'3 6.5
2017-Jul-15 12:30N 48°45' W 002°11'3 6.2
2017-Jul-15 11:58N 48°42' W 002°07'1 0.0
2017-Jul-13 22:52N 48°41' W 002°06'49 7.1
2017-Jul-13 16:03N 49°27' W 002°31'32 1.1
2017-Jul-12 11:01N 49°43' W 001°49'0 8.1
2017-Jul-12 11:00N 49°43' W 001°49'4 7.8
2017-Jul-12 10:31N 49°42' W 001°43'4 7.0
2017-Jul-12 10:00N 49°40' W 001°38'2 0.1
2017-Jul-11 14:43N 49°39' W 001°37'0 0.0
2017-Jul-11 14:28N 49°39' W 001°37'0 0.0
2017-Jul-11 13:58N 49°39' W 001°37'0 0.5
2017-Jul-11 13:30N 49°39' W 001°37'1 2.9
2017-Jul-11 13:00N 49°40' W 001°35'2 3.2
2017-Jul-11 12:30N 49°41' W 001°34'3 5.1
2017-Jul-11 12:00N 49°44' W 001°33'2 4.2
2017-Jul-11 11:30N 49°46' W 001°33'2 4.8
2017-Jul-11 11:00N 49°45' W 001°29'2 4.8
2017-Jul-11 10:30N 49°45' W 001°26'1 1.7
2017-Jul-11 10:00N 49°45' W 001°25'2 4.6
2017-Jul-11 09:30N 49°44' W 001°22'2 4.7
2017-Jul-11 09:00N 49°44' W 001°18'49 6.7
2017-Jul-11 01:43N 49°28' W 000°07'1 6.9
2017-Jul-11 01:30N 49°27' W 000°05'2 3.4
2017-Jul-11 00:58N 49°28' W 000°02'1 2.3
2017-Jul-11 00:30N 49°28' W 000°01'2 4.0
2017-Jul-11 00:00N 49°27' E 000°02'2 4.6
2017-Jul-10 23:30N 49°26' E 000°05'2 4.1
2017-Jul-10 23:00N 49°26' E 000°08'2 3.8
2017-Jul-10 22:30N 49°26' E 000°11'2 3.4
2017-Jul-10 22:00N 49°26' E 000°14'0 0.1
2017-Jul-10 13:40N 49°25' E 000°14'0 0.0
2017-Jul-10 13:28N 49°25' E 000°14'0 0.0
2017-Jul-10 12:58N 49°25' E 000°14'0 0.0
2017-Jul-10 12:28N 49°25' E 000°14'0 0.0
2017-Jul-10 08:37N 49°25' E 000°14'0 0.0
2017-Jul-10 08:31N 49°25' E 000°14'0 0.0
2017-Jul-10 08:01N 49°25' E 000°14'0 0.0
2017-Jul-09 21:09N 49°25' E 000°14'0 0.0
2017-Jul-09 21:00N 49°25' E 000°14'0 0.0
2017-Jul-09 20:30N 49°25' E 000°14'0 0.4
2017-Jul-09 20:00N 49°26' E 000°14'4 7.3
2017-Jul-09 19:30N 49°26' E 000°08'4 7.4
2017-Jul-09 19:00N 49°27' E 000°03'2 3.6
2017-Jul-09 18:30N 49°28' E 000°01'  

Dump ship's entire track history